sensor_id;sensor_type;location;lat;lon;timestamp;P1;durP1;ratioP1;P2;durP2;ratioP2
18274;SDS011;19470;49.322;7.218;2023-06-26T00:02:11;6.35;;;4.93;;
18274;SDS011;19470;49.322;7.218;2023-06-26T00:04:37;7.68;;;5.32;;
18274;SDS011;19470;49.322;7.218;2023-06-26T00:07:04;8.02;;;6.10;;
18274;SDS011;19470;49.322;7.218;2023-06-26T00:09:32;5.97;;;4.75;;
18274;SDS011;19470;49.322;7.218;2023-06-26T00:11:59;6.68;;;5.00;;
18274;SDS011;19470;49.322;7.218;2023-06-26T00:14:26;7.18;;;4.78;;
18274;SDS011;19470;49.322;7.218;2023-06-26T00:16:52;5.88;;;4.88;;
18274;SDS011;19470;49.322;7.218;2023-06-26T00:19:19;8.23;;;5.05;;
18274;SDS011;19470;49.322;7.218;2023-06-26T00:21:45;8.05;;;5.35;;
18274;SDS011;19470;49.322;7.218;2023-06-26T00:24:12;6.45;;;5.25;;
18274;SDS011;19470;49.322;7.218;2023-06-26T00:26:40;8.25;;;6.40;;
18274;SDS011;19470;49.322;7.218;2023-06-26T00:29:07;6.68;;;5.03;;
18274;SDS011;19470;49.322;7.218;2023-06-26T00:31:33;6.55;;;5.03;;
18274;SDS011;19470;49.322;7.218;2023-06-26T00:34:00;7.70;;;5.43;;
18274;SDS011;19470;49.322;7.218;2023-06-26T00:36:27;7.55;;;5.70;;
18274;SDS011;19470;49.322;7.218;2023-06-26T00:38:53;6.78;;;5.53;;
18274;SDS011;19470;49.322;7.218;2023-06-26T00:41:20;7.65;;;5.32;;
18274;SDS011;19470;49.322;7.218;2023-06-26T00:43:48;7.13;;;5.65;;
18274;SDS011;19470;49.322;7.218;2023-06-26T00:46:14;6.60;;;5.30;;
18274;SDS011;19470;49.322;7.218;2023-06-26T00:48:41;7.05;;;5.32;;
18274;SDS011;19470;49.322;7.218;2023-06-26T00:51:09;8.75;;;5.75;;
18274;SDS011;19470;49.322;7.218;2023-06-26T00:53:36;6.15;;;5.22;;
18274;SDS011;19470;49.322;7.218;2023-06-26T00:56:03;8.13;;;5.15;;
18274;SDS011;19470;49.322;7.218;2023-06-26T00:58:31;6.10;;;5.20;;
18274;SDS011;19470;49.322;7.218;2023-06-26T01:00:58;6.35;;;5.30;;
18274;SDS011;19470;49.322;7.218;2023-06-26T01:03:25;7.88;;;5.43;;
18274;SDS011;19470;49.322;7.218;2023-06-26T01:05:52;7.25;;;5.40;;
18274;SDS011;19470;49.322;7.218;2023-06-26T01:08:22;8.88;;;5.03;;
18274;SDS011;19470;49.322;7.218;2023-06-26T01:10:49;7.57;;;5.15;;
18274;SDS011;19470;49.322;7.218;2023-06-26T01:13:16;7.95;;;5.60;;
18274;SDS011;19470;49.322;7.218;2023-06-26T01:15:43;6.97;;;5.60;;
18274;SDS011;19470;49.322;7.218;2023-06-26T01:18:11;8.02;;;5.50;;
18274;SDS011;19470;49.322;7.218;2023-06-26T01:20:40;8.85;;;5.70;;
18274;SDS011;19470;49.322;7.218;2023-06-26T01:23:13;10.50;;;6.10;;
18274;SDS011;19470;49.322;7.218;2023-06-26T01:25:51;7.82;;;6.05;;
18274;SDS011;19470;49.322;7.218;2023-06-26T01:28:28;8.90;;;6.43;;
18274;SDS011;19470;49.322;7.218;2023-06-26T01:30:56;7.70;;;5.97;;
18274;SDS011;19470;49.322;7.218;2023-06-26T01:33:23;7.43;;;5.70;;
18274;SDS011;19470;49.322;7.218;2023-06-26T01:35:50;11.63;;;6.38;;
18274;SDS011;19470;49.322;7.218;2023-06-26T01:38:18;8.00;;;5.85;;
18274;SDS011;19470;49.322;7.218;2023-06-26T01:40:46;8.30;;;6.05;;
18274;SDS011;19470;49.322;7.218;2023-06-26T01:43:15;9.20;;;5.80;;
18274;SDS011;19470;49.322;7.218;2023-06-26T01:45:50;9.50;;;6.28;;
18274;SDS011;19470;49.322;7.218;2023-06-26T01:48:21;7.43;;;5.70;;
18274;SDS011;19470;49.322;7.218;2023-06-26T01:50:51;8.55;;;6.18;;
18274;SDS011;19470;49.322;7.218;2023-06-26T01:53:19;10.32;;;7.60;;
18274;SDS011;19470;49.322;7.218;2023-06-26T01:55:50;8.18;;;5.82;;
18274;SDS011;19470;49.322;7.218;2023-06-26T01:58:19;43.00;;;28.60;;
18274;SDS011;19470;49.322;7.218;2023-06-26T02:00:50;10.77;;;7.93;;
18274;SDS011;19470;49.322;7.218;2023-06-26T02:03:16;8.48;;;6.40;;
18274;SDS011;19470;49.322;7.218;2023-06-26T02:05:43;7.63;;;5.75;;
18274;SDS011;19470;49.322;7.218;2023-06-26T02:08:10;10.30;;;6.03;;
18274;SDS011;19470;49.322;7.218;2023-06-26T02:10:41;7.80;;;5.75;;
18274;SDS011;19470;49.322;7.218;2023-06-26T02:13:07;8.35;;;6.20;;
18274;SDS011;19470;49.322;7.218;2023-06-26T02:15:34;9.02;;;6.40;;
18274;SDS011;19470;49.322;7.218;2023-06-26T02:18:02;11.35;;;6.82;;
18274;SDS011;19470;49.322;7.218;2023-06-26T02:20:28;9.23;;;6.18;;
18274;SDS011;19470;49.322;7.218;2023-06-26T02:22:55;8.82;;;6.20;;
18274;SDS011;19470;49.322;7.218;2023-06-26T02:25:21;8.50;;;6.57;;
18274;SDS011;19470;49.322;7.218;2023-06-26T02:27:48;9.63;;;6.53;;
18274;SDS011;19470;49.322;7.218;2023-06-26T02:30:14;7.68;;;5.88;;
18274;SDS011;19470;49.322;7.218;2023-06-26T02:32:41;8.10;;;5.82;;
18274;SDS011;19470;49.322;7.218;2023-06-26T02:35:09;8.52;;;6.50;;
18274;SDS011;19470;49.322;7.218;2023-06-26T02:37:35;10.68;;;6.20;;
18274;SDS011;19470;49.322;7.218;2023-06-26T02:40:02;9.13;;;6.35;;
18274;SDS011;19470;49.322;7.218;2023-06-26T02:42:30;8.35;;;6.50;;
18274;SDS011;19470;49.322;7.218;2023-06-26T02:44:57;8.25;;;6.43;;
18274;SDS011;19470;49.322;7.218;2023-06-26T02:47:23;8.38;;;6.47;;
18274;SDS011;19470;49.322;7.218;2023-06-26T02:49:50;8.40;;;6.47;;
18274;SDS011;19470;49.322;7.218;2023-06-26T02:52:18;7.97;;;6.55;;
18274;SDS011;19470;49.322;7.218;2023-06-26T02:54:44;8.50;;;6.60;;
18274;SDS011;19470;49.322;7.218;2023-06-26T02:57:11;9.15;;;6.35;;
18274;SDS011;19470;49.322;7.218;2023-06-26T02:59:40;8.15;;;6.25;;
18274;SDS011;19470;49.322;7.218;2023-06-26T03:02:06;7.72;;;6.00;;
18274;SDS011;19470;49.322;7.218;2023-06-26T03:04:33;10.73;;;7.82;;
18274;SDS011;19470;49.322;7.218;2023-06-26T03:07:01;8.80;;;6.93;;
18274;SDS011;19470;49.322;7.218;2023-06-26T03:09:29;9.20;;;6.72;;
18274;SDS011;19470;49.322;7.218;2023-06-26T03:11:55;11.55;;;7.43;;
18274;SDS011;19470;49.322;7.218;2023-06-26T03:14:22;8.93;;;6.05;;
18274;SDS011;19470;49.322;7.218;2023-06-26T03:16:48;9.27;;;6.45;;
18274;SDS011;19470;49.322;7.218;2023-06-26T03:19:17;9.50;;;6.68;;
18274;SDS011;19470;49.322;7.218;2023-06-26T03:21:44;10.60;;;6.50;;
18274;SDS011;19470;49.322;7.218;2023-06-26T03:24:10;9.73;;;7.00;;
18274;SDS011;19470;49.322;7.218;2023-06-26T03:26:38;9.65;;;7.00;;
18274;SDS011;19470;49.322;7.218;2023-06-26T03:29:05;10.10;;;6.45;;
18274;SDS011;19470;49.322;7.218;2023-06-26T03:31:31;9.13;;;6.43;;
18274;SDS011;19470;49.322;7.218;2023-06-26T03:33:58;10.10;;;7.15;;
18274;SDS011;19470;49.322;7.218;2023-06-26T03:36:24;10.20;;;7.50;;
18274;SDS011;19470;49.322;7.218;2023-06-26T03:38:51;9.70;;;6.38;;
18274;SDS011;19470;49.322;7.218;2023-06-26T03:41:21;6.90;;;5.72;;
18274;SDS011;19470;49.322;7.218;2023-06-26T03:43:49;9.57;;;6.90;;
18274;SDS011;19470;49.322;7.218;2023-06-26T03:46:16;8.80;;;6.60;;
18274;SDS011;19470;49.322;7.218;2023-06-26T03:48:42;10.52;;;7.20;;
18274;SDS011;19470;49.322;7.218;2023-06-26T03:51:09;10.35;;;6.75;;
18274;SDS011;19470;49.322;7.218;2023-06-26T03:53:35;11.55;;;6.53;;
18274;SDS011;19470;49.322;7.218;2023-06-26T03:56:02;9.68;;;6.78;;
18274;SDS011;19470;49.322;7.218;2023-06-26T03:58:28;9.75;;;6.47;;
18274;SDS011;19470;49.322;7.218;2023-06-26T04:00:56;10.73;;;7.00;;
18274;SDS011;19470;49.322;7.218;2023-06-26T04:03:23;8.45;;;5.70;;
18274;SDS011;19470;49.322;7.218;2023-06-26T04:05:49;7.85;;;6.18;;
18274;SDS011;19470;49.322;7.218;2023-06-26T04:08:16;9.23;;;6.68;;
18274;SDS011;19470;49.322;7.218;2023-06-26T04:10:44;11.85;;;8.10;;
18274;SDS011;19470;49.322;7.218;2023-06-26T04:13:12;37.25;;;23.38;;
18274;SDS011;19470;49.322;7.218;2023-06-26T04:15:40;17.38;;;12.70;;
18274;SDS011;19470;49.322;7.218;2023-06-26T04:18:07;11.30;;;6.95;;
18274;SDS011;19470;49.322;7.218;2023-06-26T04:20:37;9.65;;;6.53;;
18274;SDS011;19470;49.322;7.218;2023-06-26T04:23:05;9.20;;;6.70;;
18274;SDS011;19470;49.322;7.218;2023-06-26T04:25:31;10.20;;;6.57;;
18274;SDS011;19470;49.322;7.218;2023-06-26T04:27:58;10.57;;;7.20;;
18274;SDS011;19470;49.322;7.218;2023-06-26T04:30:24;11.55;;;6.18;;
18274;SDS011;19470;49.322;7.218;2023-06-26T04:32:51;8.07;;;6.22;;
18274;SDS011;19470;49.322;7.218;2023-06-26T04:35:18;13.23;;;6.30;;
18274;SDS011;19470;49.322;7.218;2023-06-26T04:37:46;8.48;;;6.50;;
18274;SDS011;19470;49.322;7.218;2023-06-26T04:40:12;8.05;;;6.60;;
18274;SDS011;19470;49.322;7.218;2023-06-26T04:42:39;7.35;;;5.90;;
18274;SDS011;19470;49.322;7.218;2023-06-26T04:45:06;8.48;;;6.38;;
18274;SDS011;19470;49.322;7.218;2023-06-26T04:47:33;8.80;;;6.15;;
18274;SDS011;19470;49.322;7.218;2023-06-26T04:49:59;10.60;;;7.15;;
18274;SDS011;19470;49.322;7.218;2023-06-26T04:52:27;8.77;;;6.40;;
18274;SDS011;19470;49.322;7.218;2023-06-26T04:54:54;8.45;;;6.13;;
18274;SDS011;19470;49.322;7.218;2023-06-26T04:57:20;7.88;;;6.13;;
18274;SDS011;19470;49.322;7.218;2023-06-26T04:59:46;10.15;;;6.18;;
18274;SDS011;19470;49.322;7.218;2023-06-26T05:02:13;9.25;;;6.47;;
18274;SDS011;19470;49.322;7.218;2023-06-26T05:04:40;10.30;;;6.32;;
18274;SDS011;19470;49.322;7.218;2023-06-26T05:07:07;9.10;;;6.53;;
18274;SDS011;19470;49.322;7.218;2023-06-26T05:09:35;7.30;;;5.72;;
18274;SDS011;19470;49.322;7.218;2023-06-26T05:12:02;10.48;;;6.18;;
18274;SDS011;19470;49.322;7.218;2023-06-26T05:14:29;7.88;;;6.28;;
18274;SDS011;19470;49.322;7.218;2023-06-26T05:16:55;8.18;;;6.03;;
18274;SDS011;19470;49.322;7.218;2023-06-26T05:19:22;10.63;;;7.13;;
18274;SDS011;19470;49.322;7.218;2023-06-26T05:21:48;8.00;;;6.55;;
18274;SDS011;19470;49.322;7.218;2023-06-26T05:24:16;8.90;;;6.45;;
18274;SDS011;19470;49.322;7.218;2023-06-26T05:26:46;10.20;;;6.90;;
18274;SDS011;19470;49.322;7.218;2023-06-26T05:29:13;8.43;;;6.65;;
18274;SDS011;19470;49.322;7.218;2023-06-26T05:31:40;8.10;;;6.00;;
18274;SDS011;19470;49.322;7.218;2023-06-26T05:34:08;8.80;;;6.60;;
18274;SDS011;19470;49.322;7.218;2023-06-26T05:36:36;8.48;;;6.40;;
18274;SDS011;19470;49.322;7.218;2023-06-26T05:39:04;21.50;;;16.08;;
18274;SDS011;19470;49.322;7.218;2023-06-26T05:41:32;9.98;;;7.30;;
18274;SDS011;19470;49.322;7.218;2023-06-26T05:44:00;13.20;;;8.88;;
18274;SDS011;19470;49.322;7.218;2023-06-26T05:46:26;9.88;;;7.07;;
18274;SDS011;19470;49.322;7.218;2023-06-26T05:48:53;10.23;;;6.80;;
18274;SDS011;19470;49.322;7.218;2023-06-26T05:51:19;9.23;;;6.32;;
18274;SDS011;19470;49.322;7.218;2023-06-26T05:53:46;8.02;;;5.88;;
18274;SDS011;19470;49.322;7.218;2023-06-26T05:56:13;15.23;;;11.70;;
18274;SDS011;19470;49.322;7.218;2023-06-26T05:58:40;7.15;;;6.10;;
18274;SDS011;19470;49.322;7.218;2023-06-26T06:01:10;7.97;;;6.20;;
18274;SDS011;19470;49.322;7.218;2023-06-26T06:03:36;8.63;;;5.90;;
18274;SDS011;19470;49.322;7.218;2023-06-26T06:06:03;6.50;;;5.85;;
18274;SDS011;19470;49.322;7.218;2023-06-26T06:08:30;9.75;;;5.75;;
18274;SDS011;19470;49.322;7.218;2023-06-26T06:10:56;8.55;;;5.85;;
18274;SDS011;19470;49.322;7.218;2023-06-26T06:13:23;7.05;;;6.03;;
18274;SDS011;19470;49.322;7.218;2023-06-26T06:15:49;7.75;;;6.43;;
18274;SDS011;19470;49.322;7.218;2023-06-26T06:18:17;9.85;;;6.47;;
18274;SDS011;19470;49.322;7.218;2023-06-26T06:20:44;9.40;;;8.43;;
18274;SDS011;19470;49.322;7.218;2023-06-26T06:23:10;10.15;;;7.63;;
18274;SDS011;19470;49.322;7.218;2023-06-26T06:25:37;15.52;;;13.45;;
18274;SDS011;19470;49.322;7.218;2023-06-26T06:28:04;10.45;;;8.73;;
18274;SDS011;19470;49.322;7.218;2023-06-26T06:30:30;48.08;;;44.53;;
18274;SDS011;19470;49.322;7.218;2023-06-26T06:32:57;10.80;;;9.65;;
18274;SDS011;19470;49.322;7.218;2023-06-26T06:35:25;20.95;;;18.88;;
18274;SDS011;19470;49.322;7.218;2023-06-26T06:37:52;10.48;;;9.40;;
18274;SDS011;19470;49.322;7.218;2023-06-26T06:40:18;11.23;;;10.23;;
18274;SDS011;19470;49.322;7.218;2023-06-26T06:42:47;13.65;;;12.32;;
18274;SDS011;19470;49.322;7.218;2023-06-26T06:45:13;39.97;;;37.45;;
18274;SDS011;19470;49.322;7.218;2023-06-26T06:47:39;175.90;;;161.15;;
18274;SDS011;19470;49.322;7.218;2023-06-26T06:50:06;30.67;;;28.58;;
18274;SDS011;19470;49.322;7.218;2023-06-26T06:52:38;29.00;;;26.60;;
18274;SDS011;19470;49.322;7.218;2023-06-26T06:55:05;54.72;;;51.35;;
18274;SDS011;19470;49.322;7.218;2023-06-26T06:57:34;93.43;;;88.05;;
18274;SDS011;19470;49.322;7.218;2023-06-26T07:00:03;99.25;;;93.45;;
18274;SDS011;19470;49.322;7.218;2023-06-26T07:02:30;86.88;;;81.68;;
18274;SDS011;19470;49.322;7.218;2023-06-26T07:04:57;301.30;;;284.85;;
18274;SDS011;19470;49.322;7.218;2023-06-26T07:07:23;34.67;;;31.52;;
18274;SDS011;19470;49.322;7.218;2023-06-26T07:09:56;187.95;;;177.50;;
18274;SDS011;19470;49.322;7.218;2023-06-26T07:12:23;130.50;;;122.50;;
18274;SDS011;19470;49.322;7.218;2023-06-26T07:14:50;84.75;;;79.38;;
18274;SDS011;19470;49.322;7.218;2023-06-26T07:17:16;102.55;;;93.53;;
18274;SDS011;19470;49.322;7.218;2023-06-26T07:19:43;47.38;;;43.97;;
18274;SDS011;19470;49.322;7.218;2023-06-26T07:22:09;48.35;;;44.70;;
18274;SDS011;19470;49.322;7.218;2023-06-26T07:24:36;48.95;;;45.75;;
18274;SDS011;19470;49.322;7.218;2023-06-26T07:27:04;94.00;;;88.32;;
18274;SDS011;19470;49.322;7.218;2023-06-26T07:29:30;254.52;;;239.95;;
18274;SDS011;19470;49.322;7.218;2023-06-26T07:31:57;141.35;;;132.32;;
18274;SDS011;19470;49.322;7.218;2023-06-26T07:34:23;256.23;;;240.35;;
18274;SDS011;19470;49.322;7.218;2023-06-26T07:36:50;70.90;;;65.57;;
18274;SDS011;19470;49.322;7.218;2023-06-26T07:39:16;67.15;;;62.22;;
18274;SDS011;19470;49.322;7.218;2023-06-26T07:41:43;81.20;;;75.40;;
18274;SDS011;19470;49.322;7.218;2023-06-26T07:44:11;131.00;;;123.07;;
18274;SDS011;19470;49.322;7.218;2023-06-26T07:46:37;150.57;;;142.13;;
18274;SDS011;19470;49.322;7.218;2023-06-26T07:49:04;408.25;;;372.55;;
18274;SDS011;19470;49.322;7.218;2023-06-26T07:51:31;78.47;;;73.25;;
18274;SDS011;19470;49.322;7.218;2023-06-26T07:53:58;214.13;;;201.43;;
18274;SDS011;19470;49.322;7.218;2023-06-26T07:56:24;278.40;;;262.45;;
18274;SDS011;19470;49.322;7.218;2023-06-26T07:58:51;448.77;;;421.13;;
18274;SDS011;19470;49.322;7.218;2023-06-26T08:01:19;222.25;;;209.90;;
18274;SDS011;19470;49.322;7.218;2023-06-26T08:03:45;211.00;;;199.82;;
18274;SDS011;19470;49.322;7.218;2023-06-26T08:06:12;412.35;;;386.77;;
18274;SDS011;19470;49.322;7.218;2023-06-26T08:08:38;199.90;;;188.55;;
18274;SDS011;19470;49.322;7.218;2023-06-26T08:11:05;489.08;;;460.20;;
18274;SDS011;19470;49.322;7.218;2023-06-26T08:13:31;535.47;;;502.48;;
18274;SDS011;19470;49.322;7.218;2023-06-26T08:15:58;406.35;;;383.05;;
18274;SDS011;19470;49.322;7.218;2023-06-26T08:18:25;389.95;;;365.17;;
18274;SDS011;19470;49.322;7.218;2023-06-26T08:20:52;359.55;;;338.98;;
18274;SDS011;19470;49.322;7.218;2023-06-26T08:23:18;599.05;;;560.38;;
18274;SDS011;19470;49.322;7.218;2023-06-26T08:25:46;545.42;;;511.15;;
18274;SDS011;19470;49.322;7.218;2023-06-26T08:28:13;512.22;;;480.25;;
18274;SDS011;19470;49.322;7.218;2023-06-26T08:30:40;512.05;;;480.73;;
18274;SDS011;19470;49.322;7.218;2023-06-26T08:33:06;1053.75;;;957.92;;
18274;SDS011;19470;49.322;7.218;2023-06-26T08:35:38;1075.63;;;972.90;;
18274;SDS011;19470;49.322;7.218;2023-06-26T08:38:04;1108.10;;;993.90;;
18274;SDS011;19470;49.322;7.218;2023-06-26T08:40:31;1080.45;;;974.92;;
18274;SDS011;19470;49.322;7.218;2023-06-26T08:42:58;1082.75;;;979.00;;
18274;SDS011;19470;49.322;7.218;2023-06-26T08:45:24;985.72;;;890.95;;
18274;SDS011;19470;49.322;7.218;2023-06-26T08:47:53;1097.97;;;991.15;;
18274;SDS011;19470;49.322;7.218;2023-06-26T08:50:23;1077.28;;;975.28;;
18274;SDS011;19470;49.322;7.218;2023-06-26T08:52:56;1138.53;;;999.90;;
18274;SDS011;19470;49.322;7.218;2023-06-26T08:55:29;1222.03;;;999.90;;
18274;SDS011;19470;49.322;7.218;2023-06-26T08:57:59;1511.22;;;999.90;;
18274;SDS011;19470;49.322;7.218;2023-06-26T09:00:26;1999.90;;;999.90;;
18274;SDS011;19470;49.322;7.218;2023-06-26T09:02:54;1999.90;;;999.90;;
18274;SDS011;19470;49.322;7.218;2023-06-26T09:05:22;1999.90;;;999.90;;
18274;SDS011;19470;49.322;7.218;2023-06-26T09:07:48;1999.90;;;999.90;;
18274;SDS011;19470;49.322;7.218;2023-06-26T09:10:16;1999.90;;;999.90;;
18274;SDS011;19470;49.322;7.218;2023-06-26T09:12:45;1999.90;;;999.90;;
18274;SDS011;19470;49.322;7.218;2023-06-26T09:15:13;1999.90;;;999.90;;
18274;SDS011;19470;49.322;7.218;2023-06-26T09:17:40;1999.90;;;999.90;;
18274;SDS011;19470;49.322;7.218;2023-06-26T09:20:09;1999.90;;;999.90;;
18274;SDS011;19470;49.322;7.218;2023-06-26T09:22:37;511.55;;;246.15;;
18274;SDS011;19470;49.322;7.218;2023-06-26T09:25:04;1999.90;;;999.90;;
18274;SDS011;19470;49.322;7.218;2023-06-26T09:27:33;1999.90;;;999.90;;
18274;SDS011;19470;49.322;7.218;2023-06-26T09:30:01;1999.90;;;999.90;;
18274;SDS011;19470;49.322;7.218;2023-06-26T09:32:28;1197.78;;;999.90;;
18274;SDS011;19470;49.322;7.218;2023-06-26T09:34:54;1295.43;;;999.90;;
18274;SDS011;19470;49.322;7.218;2023-06-26T09:37:21;1398.82;;;999.90;;
18274;SDS011;19470;49.322;7.218;2023-06-26T09:39:50;1312.78;;;901.97;;
18274;SDS011;19470;49.322;7.218;2023-06-26T09:42:17;1751.45;;;888.00;;
18274;SDS011;19470;49.322;7.218;2023-06-26T09:44:45;1238.13;;;886.05;;
18274;SDS011;19470;49.322;7.218;2023-06-26T09:47:11;1764.80;;;918.42;;
18274;SDS011;19470;49.322;7.218;2023-06-26T09:49:40;1999.90;;;999.90;;
18274;SDS011;19470;49.322;7.218;2023-06-26T09:52:08;1999.90;;;999.90;;
18274;SDS011;19470;49.322;7.218;2023-06-26T09:54:34;1999.90;;;999.90;;
18274;SDS011;19470;49.322;7.218;2023-06-26T09:57:07;1999.90;;;999.90;;
18274;SDS011;19470;49.322;7.218;2023-06-26T09:59:34;1999.90;;;999.90;;
18274;SDS011;19470;49.322;7.218;2023-06-26T10:02:03;1999.90;;;999.90;;
18274;SDS011;19470;49.322;7.218;2023-06-26T10:04:30;1999.90;;;999.90;;
18274;SDS011;19470;49.322;7.218;2023-06-26T10:06:57;1999.90;;;999.90;;
18274;SDS011;19470;49.322;7.218;2023-06-26T10:09:25;1999.90;;;999.90;;
18274;SDS011;19470;49.322;7.218;2023-06-26T10:11:54;1999.90;;;999.90;;
18274;SDS011;19470;49.322;7.218;2023-06-26T10:14:23;1999.90;;;999.90;;
18274;SDS011;19470;49.322;7.218;2023-06-26T10:16:52;1999.90;;;999.90;;
18274;SDS011;19470;49.322;7.218;2023-06-26T10:19:24;1632.03;;;879.90;;
18274;SDS011;19470;49.322;7.218;2023-06-26T10:21:54;1203.18;;;744.90;;
18274;SDS011;19470;49.322;7.218;2023-06-26T10:24:22;1628.75;;;888.47;;
18274;SDS011;19470;49.322;7.218;2023-06-26T10:26:49;478.20;;;450.38;;
18274;SDS011;19470;49.322;7.218;2023-06-26T10:29:18;386.48;;;359.67;;
18274;SDS011;19470;49.322;7.218;2023-06-26T10:31:47;144.70;;;137.05;;
18274;SDS011;19470;49.322;7.218;2023-06-26T10:34:16;231.40;;;219.70;;
18274;SDS011;19470;49.322;7.218;2023-06-26T10:36:44;233.00;;;221.15;;
18274;SDS011;19470;49.322;7.218;2023-06-26T10:39:12;210.10;;;198.90;;
18274;SDS011;19470;49.322;7.218;2023-06-26T10:41:40;279.55;;;265.25;;
18274;SDS011;19470;49.322;7.218;2023-06-26T10:44:08;420.13;;;394.65;;
18274;SDS011;19470;49.322;7.218;2023-06-26T10:46:48;555.65;;;516.15;;
18274;SDS011;19470;49.322;7.218;2023-06-26T10:49:17;562.83;;;519.53;;
18274;SDS011;19470;49.322;7.218;2023-06-26T10:51:49;579.67;;;538.17;;
18274;SDS011;19470;49.322;7.218;2023-06-26T10:54:16;430.67;;;405.80;;
18274;SDS011;19470;49.322;7.218;2023-06-26T10:56:44;300.42;;;284.73;;
18274;SDS011;19470;49.322;7.218;2023-06-26T10:59:16;406.58;;;374.98;;
18274;SDS011;19470;49.322;7.218;2023-06-26T11:01:44;508.27;;;471.13;;
18274;SDS011;19470;49.322;7.218;2023-06-26T11:04:12;377.98;;;357.30;;
18274;SDS011;19470;49.322;7.218;2023-06-26T11:06:41;235.57;;;220.43;;
18274;SDS011;19470;49.322;7.218;2023-06-26T11:09:14;224.43;;;212.65;;
18274;SDS011;19470;49.322;7.218;2023-06-26T11:12:00;347.75;;;328.00;;
18274;SDS011;19470;49.322;7.218;2023-06-26T11:14:32;193.70;;;183.75;;
18274;SDS011;19470;49.322;7.218;2023-06-26T11:17:01;216.55;;;205.23;;
18274;SDS011;19470;49.322;7.218;2023-06-26T11:19:29;266.17;;;252.20;;
18274;SDS011;19470;49.322;7.218;2023-06-26T11:21:57;494.17;;;458.75;;
18274;SDS011;19470;49.322;7.218;2023-06-26T11:24:34;500.85;;;464.35;;
18274;SDS011;19470;49.322;7.218;2023-06-26T11:27:02;410.77;;;379.17;;
18274;SDS011;19470;49.322;7.218;2023-06-26T11:29:31;323.25;;;296.80;;
18274;SDS011;19470;49.322;7.218;2023-06-26T11:31:59;212.40;;;198.18;;
18274;SDS011;19470;49.322;7.218;2023-06-26T11:34:29;493.77;;;463.55;;
18274;SDS011;19470;49.322;7.218;2023-06-26T11:36:56;324.63;;;307.55;;
18274;SDS011;19470;49.322;7.218;2023-06-26T11:39:23;418.00;;;394.55;;
18274;SDS011;19470;49.322;7.218;2023-06-26T11:41:51;485.83;;;457.73;;
18274;SDS011;19470;49.322;7.218;2023-06-26T11:44:18;352.90;;;333.45;;
18274;SDS011;19470;49.322;7.218;2023-06-26T11:46:45;538.00;;;505.23;;
18274;SDS011;19470;49.322;7.218;2023-06-26T11:49:14;579.72;;;544.55;;
18274;SDS011;19470;49.322;7.218;2023-06-26T11:51:42;520.88;;;490.15;;
18274;SDS011;19470;49.322;7.218;2023-06-26T11:54:09;275.85;;;248.50;;
18274;SDS011;19470;49.322;7.218;2023-06-26T11:56:36;191.98;;;177.13;;
18274;SDS011;19470;49.322;7.218;2023-06-26T11:59:05;101.28;;;95.88;;
18274;SDS011;19470;49.322;7.218;2023-06-26T12:01:34;91.60;;;86.20;;
18274;SDS011;19470;49.322;7.218;2023-06-26T12:04:02;496.63;;;444.65;;
18274;SDS011;19470;49.322;7.218;2023-06-26T12:06:30;166.98;;;158.25;;
18274;SDS011;19470;49.322;7.218;2023-06-26T12:08:59;98.20;;;92.57;;
18274;SDS011;19470;49.322;7.218;2023-06-26T12:11:28;94.07;;;88.53;;
18274;SDS011;19470;49.322;7.218;2023-06-26T12:13:56;63.03;;;59.70;;
18274;SDS011;19470;49.322;7.218;2023-06-26T12:16:24;77.82;;;73.63;;
18274;SDS011;19470;49.322;7.218;2023-06-26T12:18:51;68.10;;;64.43;;
18274;SDS011;19470;49.322;7.218;2023-06-26T12:21:27;96.38;;;91.30;;
18274;SDS011;19470;49.322;7.218;2023-06-26T12:23:58;71.43;;;67.50;;
18274;SDS011;19470;49.322;7.218;2023-06-26T12:26:26;110.35;;;104.65;;
18274;SDS011;19470;49.322;7.218;2023-06-26T12:28:53;110.95;;;105.03;;
18274;SDS011;19470;49.322;7.218;2023-06-26T12:31:20;78.50;;;73.88;;
18274;SDS011;19470;49.322;7.218;2023-06-26T12:33:49;87.00;;;82.50;;
18274;SDS011;19470;49.322;7.218;2023-06-26T12:36:17;120.53;;;113.45;;
18274;SDS011;19470;49.322;7.218;2023-06-26T12:38:44;180.15;;;170.50;;
18274;SDS011;19470;49.322;7.218;2023-06-26T12:41:12;174.05;;;164.27;;
18274;SDS011;19470;49.322;7.218;2023-06-26T12:43:39;190.32;;;180.38;;
18274;SDS011;19470;49.322;7.218;2023-06-26T12:46:06;295.55;;;265.80;;
18274;SDS011;19470;49.322;7.218;2023-06-26T12:48:36;106.63;;;101.10;;
18274;SDS011;19470;49.322;7.218;2023-06-26T12:51:09;69.93;;;66.05;;
18274;SDS011;19470;49.322;7.218;2023-06-26T12:53:36;85.63;;;80.57;;
18274;SDS011;19470;49.322;7.218;2023-06-26T12:56:04;125.38;;;116.13;;
18274;SDS011;19470;49.322;7.218;2023-06-26T12:58:31;61.67;;;58.28;;
18274;SDS011;19470;49.322;7.218;2023-06-26T13:00:57;106.50;;;100.05;;
18274;SDS011;19470;49.322;7.218;2023-06-26T13:03:24;51.45;;;48.28;;
18274;SDS011;19470;49.322;7.218;2023-06-26T13:05:50;68.68;;;64.00;;
18274;SDS011;19470;49.322;7.218;2023-06-26T13:08:18;78.88;;;74.45;;
18274;SDS011;19470;49.322;7.218;2023-06-26T13:10:45;63.67;;;59.95;;
18274;SDS011;19470;49.322;7.218;2023-06-26T13:13:11;161.25;;;152.25;;
18274;SDS011;19470;49.322;7.218;2023-06-26T13:15:38;326.02;;;308.55;;
18274;SDS011;19470;49.322;7.218;2023-06-26T13:18:04;348.05;;;329.90;;
18274;SDS011;19470;49.322;7.218;2023-06-26T13:20:31;274.42;;;259.90;;
18274;SDS011;19470;49.322;7.218;2023-06-26T13:22:57;1022.88;;;943.45;;
18274;SDS011;19470;49.322;7.218;2023-06-26T13:25:25;965.42;;;891.35;;
18274;SDS011;19470;49.322;7.218;2023-06-26T13:27:52;901.42;;;838.22;;
18274;SDS011;19470;49.322;7.218;2023-06-26T13:30:18;921.97;;;856.15;;
18274;SDS011;19470;49.322;7.218;2023-06-26T13:32:45;890.60;;;828.15;;
18274;SDS011;19470;49.322;7.218;2023-06-26T13:35:11;916.40;;;852.00;;
18274;SDS011;19470;49.322;7.218;2023-06-26T13:37:38;922.47;;;857.75;;
18274;SDS011;19470;49.322;7.218;2023-06-26T13:40:06;1039.43;;;949.78;;
18274;SDS011;19470;49.322;7.218;2023-06-26T13:42:35;981.97;;;909.63;;
18274;SDS011;19470;49.322;7.218;2023-06-26T13:45:02;336.52;;;318.77;;
18274;SDS011;19470;49.322;7.218;2023-06-26T13:47:29;341.80;;;320.48;;
18274;SDS011;19470;49.322;7.218;2023-06-26T13:49:55;314.52;;;296.88;;
18274;SDS011;19470;49.322;7.218;2023-06-26T13:52:21;299.92;;;272.77;;
18274;SDS011;19470;49.322;7.218;2023-06-26T13:54:48;179.65;;;170.40;;
18274;SDS011;19470;49.322;7.218;2023-06-26T13:57:15;160.30;;;151.60;;
18274;SDS011;19470;49.322;7.218;2023-06-26T13:59:42;304.10;;;284.27;;
18274;SDS011;19470;49.322;7.218;2023-06-26T14:02:09;253.40;;;240.13;;
18274;SDS011;19470;49.322;7.218;2023-06-26T14:04:35;179.02;;;169.80;;
18274;SDS011;19470;49.322;7.218;2023-06-26T14:07:02;215.90;;;204.93;;
18274;SDS011;19470;49.322;7.218;2023-06-26T14:09:29;258.10;;;245.05;;
18274;SDS011;19470;49.322;7.218;2023-06-26T14:11:55;279.40;;;264.67;;
18274;SDS011;19470;49.322;7.218;2023-06-26T14:14:22;253.00;;;240.40;;
18274;SDS011;19470;49.322;7.218;2023-06-26T14:16:51;416.92;;;390.83;;
18274;SDS011;19470;49.322;7.218;2023-06-26T14:19:17;228.02;;;216.68;;
18274;SDS011;19470;49.322;7.218;2023-06-26T14:21:44;584.20;;;537.85;;